sensor_id;sensor_type;location;lat;lon;timestamp;P1;durP1;ratioP1;P2;durP2;ratioP2
72335;SDS011;62171;48.446;8.834;2022-08-21T00:00:20;4.28;;;2.38;;
72335;SDS011;62171;48.446;8.834;2022-08-21T00:02:53;5.57;;;2.53;;
72335;SDS011;62171;48.446;8.834;2022-08-21T00:05:26;3.80;;;2.72;;
72335;SDS011;62171;48.446;8.834;2022-08-21T00:07:52;3.85;;;2.90;;
72335;SDS011;62171;48.446;8.834;2022-08-21T00:10:19;10.80;;;3.10;;
72335;SDS011;62171;48.446;8.834;2022-08-21T00:12:44;3.97;;;2.80;;
72335;SDS011;62171;48.446;8.834;2022-08-21T00:15:11;3.75;;;2.60;;
72335;SDS011;62171;48.446;8.834;2022-08-21T00:17:38;5.45;;;2.63;;
72335;SDS011;62171;48.446;8.834;2022-08-21T00:20:05;4.75;;;2.95;;
72335;SDS011;62171;48.446;8.834;2022-08-21T00:22:34;4.63;;;2.35;;
72335;SDS011;62171;48.446;8.834;2022-08-21T00:24:59;3.65;;;2.70;;
72335;SDS011;62171;48.446;8.834;2022-08-21T00:27:25;3.53;;;2.72;;
72335;SDS011;62171;48.446;8.834;2022-08-21T00:29:51;3.22;;;2.58;;
72335;SDS011;62171;48.446;8.834;2022-08-21T00:32:22;4.20;;;2.92;;
72335;SDS011;62171;48.446;8.834;2022-08-21T00:34:49;6.78;;;3.00;;
72335;SDS011;62171;48.446;8.834;2022-08-21T00:37:15;5.57;;;3.45;;
72335;SDS011;62171;48.446;8.834;2022-08-21T00:39:40;4.85;;;3.03;;
72335;SDS011;62171;48.446;8.834;2022-08-21T00:42:06;3.30;;;2.80;;
72335;SDS011;62171;48.446;8.834;2022-08-21T00:44:31;4.03;;;2.70;;
72335;SDS011;62171;48.446;8.834;2022-08-21T00:46:57;3.22;;;2.60;;
72335;SDS011;62171;48.446;8.834;2022-08-21T00:49:22;5.32;;;2.30;;
72335;SDS011;62171;48.446;8.834;2022-08-21T00:51:53;5.80;;;2.38;;
72335;SDS011;62171;48.446;8.834;2022-08-21T00:54:23;3.22;;;2.30;;
72335;SDS011;62171;48.446;8.834;2022-08-21T00:56:55;3.50;;;2.15;;
72335;SDS011;62171;48.446;8.834;2022-08-21T00:59:23;2.90;;;2.40;;
72335;SDS011;62171;48.446;8.834;2022-08-21T01:01:50;3.63;;;2.67;;
72335;SDS011;62171;48.446;8.834;2022-08-21T01:04:17;4.50;;;2.67;;
72335;SDS011;62171;48.446;8.834;2022-08-21T01:06:43;4.30;;;2.90;;
72335;SDS011;62171;48.446;8.834;2022-08-21T01:09:09;3.30;;;2.85;;
72335;SDS011;62171;48.446;8.834;2022-08-21T01:11:35;4.68;;;3.25;;
72335;SDS011;62171;48.446;8.834;2022-08-21T01:14:01;5.68;;;3.30;;
72335;SDS011;62171;48.446;8.834;2022-08-21T01:16:27;4.18;;;2.83;;
72335;SDS011;62171;48.446;8.834;2022-08-21T01:18:53;4.65;;;2.97;;
72335;SDS011;62171;48.446;8.834;2022-08-21T01:21:21;4.05;;;3.08;;
72335;SDS011;62171;48.446;8.834;2022-08-21T01:23:49;3.70;;;3.05;;
72335;SDS011;62171;48.446;8.834;2022-08-21T01:26:18;4.90;;;3.10;;
72335;SDS011;62171;48.446;8.834;2022-08-21T01:28:52;3.75;;;3.00;;
72335;SDS011;62171;48.446;8.834;2022-08-21T01:31:22;5.63;;;2.83;;
72335;SDS011;62171;48.446;8.834;2022-08-21T01:33:49;4.13;;;2.80;;
72335;SDS011;62171;48.446;8.834;2022-08-21T01:36:15;3.65;;;2.58;;
72335;SDS011;62171;48.446;8.834;2022-08-21T01:38:40;6.07;;;2.63;;
72335;SDS011;62171;48.446;8.834;2022-08-21T01:41:06;4.05;;;2.47;;
72335;SDS011;62171;48.446;8.834;2022-08-21T01:43:31;2.85;;;2.53;;
72335;SDS011;62171;48.446;8.834;2022-08-21T01:45:57;2.65;;;2.40;;
72335;SDS011;62171;48.446;8.834;2022-08-21T01:48:23;3.25;;;2.60;;
72335;SDS011;62171;48.446;8.834;2022-08-21T01:50:48;3.88;;;2.35;;
72335;SDS011;62171;48.446;8.834;2022-08-21T01:53:13;4.93;;;2.55;;
72335;SDS011;62171;48.446;8.834;2022-08-21T01:55:40;6.15;;;2.60;;
72335;SDS011;62171;48.446;8.834;2022-08-21T01:58:06;3.25;;;2.53;;
72335;SDS011;62171;48.446;8.834;2022-08-21T02:00:32;3.53;;;2.50;;
72335;SDS011;62171;48.446;8.834;2022-08-21T02:02:57;3.10;;;2.50;;
72335;SDS011;62171;48.446;8.834;2022-08-21T02:05:22;6.55;;;2.90;;
72335;SDS011;62171;48.446;8.834;2022-08-21T02:07:48;4.80;;;2.88;;
72335;SDS011;62171;48.446;8.834;2022-08-21T02:10:17;5.47;;;3.00;;
72335;SDS011;62171;48.446;8.834;2022-08-21T02:12:45;3.63;;;2.67;;
72335;SDS011;62171;48.446;8.834;2022-08-21T02:15:11;4.43;;;2.70;;
72335;SDS011;62171;48.446;8.834;2022-08-21T02:17:37;3.72;;;3.08;;
72335;SDS011;62171;48.446;8.834;2022-08-21T02:20:08;3.13;;;2.70;;
72335;SDS011;62171;48.446;8.834;2022-08-21T02:22:35;3.70;;;2.88;;
72335;SDS011;62171;48.446;8.834;2022-08-21T02:25:00;4.85;;;3.00;;
72335;SDS011;62171;48.446;8.834;2022-08-21T02:27:26;3.15;;;2.58;;
72335;SDS011;62171;48.446;8.834;2022-08-21T02:29:52;5.93;;;3.33;;
72335;SDS011;62171;48.446;8.834;2022-08-21T02:32:17;4.15;;;2.92;;
72335;SDS011;62171;48.446;8.834;2022-08-21T02:34:42;4.13;;;3.10;;
72335;SDS011;62171;48.446;8.834;2022-08-21T02:37:08;5.03;;;2.90;;
72335;SDS011;62171;48.446;8.834;2022-08-21T02:39:33;4.78;;;2.90;;
72335;SDS011;62171;48.446;8.834;2022-08-21T02:41:58;4.40;;;2.53;;
72335;SDS011;62171;48.446;8.834;2022-08-21T02:44:24;3.03;;;2.30;;
72335;SDS011;62171;48.446;8.834;2022-08-21T02:46:50;3.42;;;2.65;;
72335;SDS011;62171;48.446;8.834;2022-08-21T02:49:15;3.58;;;2.30;;
72335;SDS011;62171;48.446;8.834;2022-08-21T02:51:41;2.95;;;2.47;;
72335;SDS011;62171;48.446;8.834;2022-08-21T02:54:06;6.25;;;2.80;;
72335;SDS011;62171;48.446;8.834;2022-08-21T02:56:31;6.05;;;2.97;;
72335;SDS011;62171;48.446;8.834;2022-08-21T02:58:57;5.78;;;2.63;;
72335;SDS011;62171;48.446;8.834;2022-08-21T03:01:22;5.63;;;2.63;;
72335;SDS011;62171;48.446;8.834;2022-08-21T03:03:48;4.25;;;2.67;;
72335;SDS011;62171;48.446;8.834;2022-08-21T03:06:15;4.90;;;2.70;;
72335;SDS011;62171;48.446;8.834;2022-08-21T03:08:41;3.80;;;2.33;;
72335;SDS011;62171;48.446;8.834;2022-08-21T03:11:06;5.35;;;2.75;;
72335;SDS011;62171;48.446;8.834;2022-08-21T03:13:32;8.52;;;3.45;;
72335;SDS011;62171;48.446;8.834;2022-08-21T03:15:58;5.70;;;3.53;;
72335;SDS011;62171;48.446;8.834;2022-08-21T03:18:23;3.75;;;3.17;;
72335;SDS011;62171;48.446;8.834;2022-08-21T03:20:49;7.97;;;3.42;;
72335;SDS011;62171;48.446;8.834;2022-08-21T03:23:15;5.43;;;3.20;;
72335;SDS011;62171;48.446;8.834;2022-08-21T03:25:42;5.57;;;3.38;;
72335;SDS011;62171;48.446;8.834;2022-08-21T03:28:10;3.88;;;2.95;;
72335;SDS011;62171;48.446;8.834;2022-08-21T03:30:37;5.43;;;3.50;;
72335;SDS011;62171;48.446;8.834;2022-08-21T03:33:02;4.97;;;3.13;;
72335;SDS011;62171;48.446;8.834;2022-08-21T03:35:28;5.38;;;3.30;;
72335;SDS011;62171;48.446;8.834;2022-08-21T03:37:54;3.92;;;3.05;;
72335;SDS011;62171;48.446;8.834;2022-08-21T03:40:20;4.60;;;3.03;;
72335;SDS011;62171;48.446;8.834;2022-08-21T03:42:47;7.00;;;3.63;;
72335;SDS011;62171;48.446;8.834;2022-08-21T03:45:14;13.23;;;3.85;;
72335;SDS011;62171;48.446;8.834;2022-08-21T03:50:37;4.95;;;3.17;;
72335;SDS011;62171;48.446;8.834;2022-08-21T03:53:05;4.55;;;3.08;;
72335;SDS011;62171;48.446;8.834;2022-08-21T03:55:31;6.47;;;2.90;;
72335;SDS011;62171;48.446;8.834;2022-08-21T03:57:56;3.83;;;3.00;;
72335;SDS011;62171;48.446;8.834;2022-08-21T04:00:22;4.60;;;2.97;;
72335;SDS011;62171;48.446;8.834;2022-08-21T04:02:48;5.03;;;2.58;;
72335;SDS011;62171;48.446;8.834;2022-08-21T04:05:14;4.53;;;3.72;;
72335;SDS011;62171;48.446;8.834;2022-08-21T04:07:52;4.82;;;2.65;;
72335;SDS011;62171;48.446;8.834;2022-08-21T04:10:18;5.15;;;2.70;;
72335;SDS011;62171;48.446;8.834;2022-08-21T04:12:44;6.75;;;3.17;;
72335;SDS011;62171;48.446;8.834;2022-08-21T04:15:09;10.13;;;3.30;;
72335;SDS011;62171;48.446;8.834;2022-08-21T04:17:35;9.70;;;3.72;;
72335;SDS011;62171;48.446;8.834;2022-08-21T04:20:01;3.75;;;3.10;;
72335;SDS011;62171;48.446;8.834;2022-08-21T04:22:26;4.80;;;3.20;;
72335;SDS011;62171;48.446;8.834;2022-08-21T04:24:51;4.80;;;3.22;;
72335;SDS011;62171;48.446;8.834;2022-08-21T04:27:17;4.10;;;3.20;;
72335;SDS011;62171;48.446;8.834;2022-08-21T04:29:42;5.22;;;3.40;;
72335;SDS011;62171;48.446;8.834;2022-08-21T04:32:07;8.38;;;3.50;;
72335;SDS011;62171;48.446;8.834;2022-08-21T04:34:33;10.45;;;4.45;;
72335;SDS011;62171;48.446;8.834;2022-08-21T04:36:58;12.98;;;4.15;;
72335;SDS011;62171;48.446;8.834;2022-08-21T04:39:24;5.25;;;3.65;;
72335;SDS011;62171;48.446;8.834;2022-08-21T04:41:49;6.13;;;3.58;;
72335;SDS011;62171;48.446;8.834;2022-08-21T04:44:14;5.90;;;3.67;;
72335;SDS011;62171;48.446;8.834;2022-08-21T04:46:40;5.70;;;3.85;;
72335;SDS011;62171;48.446;8.834;2022-08-21T04:49:05;5.38;;;3.28;;
72335;SDS011;62171;48.446;8.834;2022-08-21T04:51:34;5.72;;;3.88;;
72335;SDS011;62171;48.446;8.834;2022-08-21T04:54:23;4.75;;;3.58;;
72335;SDS011;62171;48.446;8.834;2022-08-21T04:56:52;7.32;;;3.60;;
72335;SDS011;62171;48.446;8.834;2022-08-21T04:59:20;5.07;;;3.58;;
72335;SDS011;62171;48.446;8.834;2022-08-21T05:01:49;5.22;;;3.15;;
72335;SDS011;62171;48.446;8.834;2022-08-21T05:04:16;4.70;;;3.10;;
72335;SDS011;62171;48.446;8.834;2022-08-21T05:06:45;4.63;;;3.10;;
72335;SDS011;62171;48.446;8.834;2022-08-21T05:09:12;4.10;;;2.90;;
72335;SDS011;62171;48.446;8.834;2022-08-21T05:11:41;3.53;;;2.72;;
72335;SDS011;62171;48.446;8.834;2022-08-21T05:14:07;4.32;;;3.00;;
72335;SDS011;62171;48.446;8.834;2022-08-21T05:16:33;5.25;;;2.85;;
72335;SDS011;62171;48.446;8.834;2022-08-21T05:18:59;5.45;;;3.50;;
72335;SDS011;62171;48.446;8.834;2022-08-21T05:21:24;4.03;;;3.17;;
72335;SDS011;62171;48.446;8.834;2022-08-21T05:23:49;4.85;;;3.10;;
72335;SDS011;62171;48.446;8.834;2022-08-21T05:26:15;7.15;;;3.05;;
72335;SDS011;62171;48.446;8.834;2022-08-21T05:28:40;3.60;;;2.72;;
72335;SDS011;62171;48.446;8.834;2022-08-21T05:31:05;4.03;;;2.53;;
72335;SDS011;62171;48.446;8.834;2022-08-21T05:33:31;3.28;;;2.63;;
72335;SDS011;62171;48.446;8.834;2022-08-21T05:35:56;4.07;;;2.80;;
72335;SDS011;62171;48.446;8.834;2022-08-21T05:38:22;3.28;;;2.95;;
72335;SDS011;62171;48.446;8.834;2022-08-21T05:40:49;4.00;;;2.97;;
72335;SDS011;62171;48.446;8.834;2022-08-21T05:43:14;4.03;;;3.17;;
72335;SDS011;62171;48.446;8.834;2022-08-21T05:45:40;3.92;;;3.15;;
72335;SDS011;62171;48.446;8.834;2022-08-21T05:48:24;4.35;;;3.00;;
72335;SDS011;62171;48.446;8.834;2022-08-21T05:50:50;3.40;;;3.03;;
72335;SDS011;62171;48.446;8.834;2022-08-21T05:53:18;3.15;;;2.72;;
72335;SDS011;62171;48.446;8.834;2022-08-21T05:55:45;3.00;;;2.67;;
72335;SDS011;62171;48.446;8.834;2022-08-21T05:58:11;3.17;;;2.50;;
72335;SDS011;62171;48.446;8.834;2022-08-21T06:00:41;3.80;;;2.63;;
72335;SDS011;62171;48.446;8.834;2022-08-21T06:03:10;3.53;;;3.05;;
72335;SDS011;62171;48.446;8.834;2022-08-21T06:05:40;3.88;;;2.97;;
72335;SDS011;62171;48.446;8.834;2022-08-21T06:08:06;3.20;;;2.60;;
72335;SDS011;62171;48.446;8.834;2022-08-21T06:10:31;3.53;;;3.03;;
72335;SDS011;62171;48.446;8.834;2022-08-21T06:12:56;2.97;;;2.67;;
72335;SDS011;62171;48.446;8.834;2022-08-21T06:15:22;3.40;;;2.90;;
72335;SDS011;62171;48.446;8.834;2022-08-21T06:17:47;5.38;;;3.30;;
72335;SDS011;62171;48.446;8.834;2022-08-21T06:20:12;3.70;;;2.78;;
72335;SDS011;62171;48.446;8.834;2022-08-21T06:22:38;5.50;;;3.40;;
72335;SDS011;62171;48.446;8.834;2022-08-21T06:25:03;5.47;;;3.28;;
72335;SDS011;62171;48.446;8.834;2022-08-21T06:27:29;4.55;;;3.50;;
72335;SDS011;62171;48.446;8.834;2022-08-21T06:29:54;8.00;;;3.28;;
72335;SDS011;62171;48.446;8.834;2022-08-21T06:32:22;4.10;;;3.03;;
72335;SDS011;62171;48.446;8.834;2022-08-21T06:34:47;3.92;;;3.20;;
72335;SDS011;62171;48.446;8.834;2022-08-21T06:37:12;5.07;;;3.47;;
72335;SDS011;62171;48.446;8.834;2022-08-21T06:39:38;5.65;;;3.60;;
72335;SDS011;62171;48.446;8.834;2022-08-21T06:42:04;5.05;;;3.60;;
72335;SDS011;62171;48.446;8.834;2022-08-21T06:44:30;4.22;;;3.47;;
72335;SDS011;62171;48.446;8.834;2022-08-21T06:46:55;5.05;;;3.85;;
72335;SDS011;62171;48.446;8.834;2022-08-21T06:49:20;5.32;;;3.88;;
72335;SDS011;62171;48.446;8.834;2022-08-21T06:51:46;6.32;;;3.75;;
72335;SDS011;62171;48.446;8.834;2022-08-21T06:54:11;4.47;;;3.88;;
72335;SDS011;62171;48.446;8.834;2022-08-21T06:56:36;5.63;;;4.00;;
72335;SDS011;62171;48.446;8.834;2022-08-21T06:59:03;7.13;;;3.90;;
72335;SDS011;62171;48.446;8.834;2022-08-21T07:01:29;4.38;;;3.55;;
72335;SDS011;62171;48.446;8.834;2022-08-21T07:03:55;3.83;;;3.20;;
72335;SDS011;62171;48.446;8.834;2022-08-21T07:06:20;4.15;;;3.28;;
72335;SDS011;62171;48.446;8.834;2022-08-21T07:08:46;4.28;;;3.60;;
72335;SDS011;62171;48.446;8.834;2022-08-21T07:11:15;3.88;;;2.90;;
72335;SDS011;62171;48.446;8.834;2022-08-21T07:13:43;3.90;;;3.17;;
72335;SDS011;62171;48.446;8.834;2022-08-21T07:16:09;3.95;;;3.08;;
72335;SDS011;62171;48.446;8.834;2022-08-21T07:18:35;4.38;;;3.50;;
72335;SDS011;62171;48.446;8.834;2022-08-21T07:21:01;4.95;;;3.75;;
72335;SDS011;62171;48.446;8.834;2022-08-21T07:23:29;4.55;;;3.33;;
72335;SDS011;62171;48.446;8.834;2022-08-21T07:25:57;4.63;;;2.90;;
72335;SDS011;62171;48.446;8.834;2022-08-21T07:28:24;5.18;;;2.85;;
72335;SDS011;62171;48.446;8.834;2022-08-21T07:30:50;3.75;;;3.25;;
72335;SDS011;62171;48.446;8.834;2022-08-21T07:33:17;6.45;;;2.90;;
72335;SDS011;62171;48.446;8.834;2022-08-21T07:35:42;3.72;;;2.95;;
72335;SDS011;62171;48.446;8.834;2022-08-21T07:38:08;7.07;;;2.92;;
72335;SDS011;62171;48.446;8.834;2022-08-21T07:40:33;4.18;;;2.78;;
72335;SDS011;62171;48.446;8.834;2022-08-21T07:42:59;4.32;;;2.92;;
72335;SDS011;62171;48.446;8.834;2022-08-21T07:45:24;3.80;;;2.58;;
72335;SDS011;62171;48.446;8.834;2022-08-21T07:47:51;5.97;;;2.53;;
72335;SDS011;62171;48.446;8.834;2022-08-21T07:50:17;5.50;;;3.72;;
72335;SDS011;62171;48.446;8.834;2022-08-21T07:52:43;7.30;;;3.20;;
72335;SDS011;62171;48.446;8.834;2022-08-21T07:55:09;10.15;;;6.15;;
72335;SDS011;62171;48.446;8.834;2022-08-21T07:57:36;25.80;;;15.63;;
72335;SDS011;62171;48.446;8.834;2022-08-21T08:00:05;49.05;;;28.98;;
72335;SDS011;62171;48.446;8.834;2022-08-21T08:02:33;23.00;;;16.55;;
72335;SDS011;62171;48.446;8.834;2022-08-21T08:04:59;40.13;;;27.10;;
72335;SDS011;62171;48.446;8.834;2022-08-21T08:07:28;17.23;;;10.63;;
72335;SDS011;62171;48.446;8.834;2022-08-21T08:09:54;42.25;;;27.60;;
72335;SDS011;62171;48.446;8.834;2022-08-21T08:12:19;21.52;;;14.68;;
72335;SDS011;62171;48.446;8.834;2022-08-21T08:14:45;19.52;;;12.25;;
72335;SDS011;62171;48.446;8.834;2022-08-21T08:17:11;11.73;;;8.23;;
72335;SDS011;62171;48.446;8.834;2022-08-21T08:19:37;7.43;;;4.80;;
72335;SDS011;62171;48.446;8.834;2022-08-21T08:22:12;10.32;;;5.63;;
72335;SDS011;62171;48.446;8.834;2022-08-21T08:24:41;8.85;;;5.03;;
72335;SDS011;62171;48.446;8.834;2022-08-21T08:27:07;7.00;;;3.70;;
72335;SDS011;62171;48.446;8.834;2022-08-21T08:29:32;7.13;;;3.50;;
72335;SDS011;62171;48.446;8.834;2022-08-21T08:31:57;5.72;;;3.45;;
72335;SDS011;62171;48.446;8.834;2022-08-21T08:34:23;9.30;;;3.78;;
72335;SDS011;62171;48.446;8.834;2022-08-21T08:36:48;5.70;;;3.13;;
72335;SDS011;62171;48.446;8.834;2022-08-21T08:39:14;9.38;;;5.03;;
72335;SDS011;62171;48.446;8.834;2022-08-21T08:41:39;2.97;;;2.10;;
72335;SDS011;62171;48.446;8.834;2022-08-21T08:44:06;4.88;;;2.58;;
72335;SDS011;62171;48.446;8.834;2022-08-21T08:46:41;3.47;;;2.10;;
72335;SDS011;62171;48.446;8.834;2022-08-21T08:49:11;6.22;;;2.05;;
72335;SDS011;62171;48.446;8.834;2022-08-21T08:54:43;4.50;;;2.05;;
72335;SDS011;62171;48.446;8.834;2022-08-21T08:57:17;6.05;;;2.13;;
72335;SDS011;62171;48.446;8.834;2022-08-21T08:59:51;4.03;;;2.30;;
72335;SDS011;62171;48.446;8.834;2022-08-21T09:02:20;6.65;;;3.15;;
72335;SDS011;62171;48.446;8.834;2022-08-21T09:04:48;6.65;;;3.15;;
72335;SDS011;62171;48.446;8.834;2022-08-21T09:20:37;4.13;;;2.13;;
72335;SDS011;62171;48.446;8.834;2022-08-21T09:28:45;4.18;;;2.05;;
72335;SDS011;62171;48.446;8.834;2022-08-21T09:33:41;6.47;;;2.85;;
72335;SDS011;62171;48.446;8.834;2022-08-21T09:36:07;6.10;;;1.90;;
72335;SDS011;62171;48.446;8.834;2022-08-21T09:38:34;18.45;;;11.38;;
72335;SDS011;62171;48.446;8.834;2022-08-21T09:41:04;9.20;;;4.35;;
72335;SDS011;62171;48.446;8.834;2022-08-21T09:43:35;11.63;;;5.88;;
72335;SDS011;62171;48.446;8.834;2022-08-21T09:48:48;23.77;;;15.10;;
72335;SDS011;62171;48.446;8.834;2022-08-21T09:51:16;3.72;;;1.80;;
72335;SDS011;62171;48.446;8.834;2022-08-21T09:53:48;3.97;;;2.30;;
72335;SDS011;62171;48.446;8.834;2022-08-21T09:56:29;5.32;;;2.15;;
72335;SDS011;62171;48.446;8.834;2022-08-21T09:59:17;5.05;;;2.70;;
72335;SDS011;62171;48.446;8.834;2022-08-21T10:01:56;5.03;;;2.17;;
72335;SDS011;62171;48.446;8.834;2022-08-21T10:04:23;3.97;;;1.98;;
72335;SDS011;62171;48.446;8.834;2022-08-21T10:07:06;6.22;;;2.15;;
72335;SDS011;62171;48.446;8.834;2022-08-21T10:09:33;4.55;;;2.03;;
72335;SDS011;62171;48.446;8.834;2022-08-21T10:12:05;6.93;;;1.90;;
72335;SDS011;62171;48.446;8.834;2022-08-21T10:14:42;4.78;;;2.00;;
72335;SDS011;62171;48.446;8.834;2022-08-21T10:17:22;6.28;;;2.00;;
72335;SDS011;62171;48.446;8.834;2022-08-21T10:20:10;5.50;;;2.28;;
72335;SDS011;62171;48.446;8.834;2022-08-21T10:28:40;4.57;;;2.80;;
72335;SDS011;62171;48.446;8.834;2022-08-21T10:34:07;9.68;;;5.47;;
72335;SDS011;62171;48.446;8.834;2022-08-21T10:39:39;5.03;;;2.10;;
72335;SDS011;62171;48.446;8.834;2022-08-21T10:42:34;5.47;;;1.73;;
72335;SDS011;62171;48.446;8.834;2022-08-21T10:50:13;11.85;;;5.13;;
72335;SDS011;62171;48.446;8.834;2022-08-21T10:52:55;3.67;;;1.75;;
72335;SDS011;62171;48.446;8.834;2022-08-21T10:55:52;5.78;;;1.80;;
72335;SDS011;62171;48.446;8.834;2022-08-21T11:00:54;3.65;;;1.80;;
72335;SDS011;62171;48.446;8.834;2022-08-21T11:03:33;5.10;;;2.30;;
72335;SDS011;62171;48.446;8.834;2022-08-21T11:06:06;3.35;;;1.90;;
72335;SDS011;62171;48.446;8.834;2022-08-21T11:08:42;4.00;;;2.03;;
72335;SDS011;62171;48.446;8.834;2022-08-21T11:11:22;3.60;;;1.67;;
72335;SDS011;62171;48.446;8.834;2022-08-21T11:13:56;6.68;;;3.75;;
72335;SDS011;62171;48.446;8.834;2022-08-21T11:16:33;3.55;;;1.52;;
72335;SDS011;62171;48.446;8.834;2022-08-21T11:19:09;5.20;;;2.47;;
72335;SDS011;62171;48.446;8.834;2022-08-21T11:21:39;5.90;;;2.50;;
72335;SDS011;62171;48.446;8.834;2022-08-21T11:29:29;2.45;;;1.50;;
72335;SDS011;62171;48.446;8.834;2022-08-21T11:34:49;4.43;;;3.33;;
72335;SDS011;62171;48.446;8.834;2022-08-21T11:40:19;4.60;;;1.50;;
72335;SDS011;62171;48.446;8.834;2022-08-21T11:50:52;4.05;;;1.60;;
72335;SDS011;62171;48.446;8.834;2022-08-21T11:55:56;2.85;;;1.63;;
72335;SDS011;62171;48.446;8.834;2022-08-21T11:58:28;2.50;;;1.40;;
72335;SDS011;62171;48.446;8.834;2022-08-21T12:01:07;3.88;;;1.92;;
72335;SDS011;62171;48.446;8.834;2022-08-21T12:03:37;3.88;;;1.80;;
72335;SDS011;62171;48.446;8.834;2022-08-21T12:06:07;3.75;;;2.10;;
72335;SDS011;62171;48.446;8.834;2022-08-21T12:11:08;4.50;;;1.33;;
72335;SDS011;62171;48.446;8.834;2022-08-21T12:13:53;2.58;;;1.45;;
72335;SDS011;62171;48.446;8.834;2022-08-21T12:16:41;2.83;;;1.65;;
72335;SDS011;62171;48.446;8.834;2022-08-21T12:19:13;4.00;;;1.70;;
72335;SDS011;62171;48.446;8.834;2022-08-21T12:21:49;10.63;;;8.90;;
72335;SDS011;62171;48.446;8.834;2022-08-21T12:26:50;4.07;;;1.67;;
72335;SDS011;62171;48.446;8.834;2022-08-21T12:31:57;3.08;;;2.20;;
72335;SDS011;62171;48.446;8.834;2022-08-21T12:34:31;1.77;;;1.40;;
72335;SDS011;62171;48.446;8.834;2022-08-21T12:37:02;2.50;;;1.48;;
72335;SDS011;62171;48.446;8.834;2022-08-21T12:39:32;2.83;;;1.30;;
72335;SDS011;62171;48.446;8.834;2022-08-21T12:44:55;2.75;;;1.65;;
72335;SDS011;62171;48.446;8.834;2022-08-21T12:47:33;2.45;;;1.13;;
72335;SDS011;62171;48.446;8.834;2022-08-21T12:50:12;11.93;;;10.82;;
72335;SDS011;62171;48.446;8.834;2022-08-21T12:52:46;4.10;;;1.60;;
72335;SDS011;62171;48.446;8.834;2022-08-21T12:55:25;2.75;;;1.40;;
72335;SDS011;62171;48.446;8.834;2022-08-21T12:57:52;3.63;;;1.80;;
72335;SDS011;62171;48.446;8.834;2022-08-21T13:00:20;2.08;;;1.40;;
72335;SDS011;62171;48.446;8.834;2022-08-21T13:02:48;3.13;;;1.52;;
72335;SDS011;62171;48.446;8.834;2022-08-21T13:05:21;2.22;;;1.30;;
72335;SDS011;62171;48.446;8.834;2022-08-21T13:07:54;1.70;;;1.40;;
72335;SDS011;62171;48.446;8.834;2022-08-21T13:10:25;2.60;;;1.48;;
72335;SDS011;62171;48.446;8.834;2022-08-21T13:12:53;3.47;;;1.67;;
72335;SDS011;62171;48.446;8.834;2022-08-21T13:15:22;3.10;;;1.50;;
72335;SDS011;62171;48.446;8.834;2022-08-21T13:17:51;1.92;;;1.38;;
72335;SDS011;62171;48.446;8.834;2022-08-21T13:20:24;2.60;;;1.38;;
72335;SDS011;62171;48.446;8.834;2022-08-21T13:22:53;1.83;;;1.40;;
72335;SDS011;62171;48.446;8.834;2022-08-21T13:25:20;3.05;;;1.60;;
72335;SDS011;62171;48.446;8.834;2022-08-21T13:30:40;11.05;;;9.98;;
72335;SDS011;62171;48.446;8.834;2022-08-21T13:33:08;2.05;;;1.40;;
72335;SDS011;62171;48.446;8.834;2022-08-21T13:35:45;2.10;;;1.33;;
72335;SDS011;62171;48.446;8.834;2022-08-21T13:38:33;2.95;;;1.48;;
72335;SDS011;62171;48.446;8.834;2022-08-21T13:41:12;2.20;;;1.42;;
72335;SDS011;62171;48.446;8.834;2022-08-21T13:43:43;2.35;;;1.40;;
72335;SDS011;62171;48.446;8.834;2022-08-21T13:46:10;1.77;;;1.25;;
72335;SDS011;62171;48.446;8.834;2022-08-21T13:48:38;1.75;;;1.20;;
72335;SDS011;62171;48.446;8.834;2022-08-21T13:51:03;2.08;;;1.20;;
72335;SDS011;62171;48.446;8.834;2022-08-21T13:55:57;2.15;;;1.27;;
72335;SDS011;62171;48.446;8.834;2022-08-21T13:58:24;3.92;;;2.00;;
72335;SDS011;62171;48.446;8.834;2022-08-21T14:00:55;3.67;;;3.30;;
72335;SDS011;62171;48.446;8.834;2022-08-21T14:03:33;1.73;;;1.30;;
72335;SDS011;62171;48.446;8.834;2022-08-21T14:06:02;2.97;;;1.48;;
72335;SDS011;62171;48.446;8.834;2022-08-21T14:08:36;2.38;;;1.60;;
72335;SDS011;62171;48.446;8.834;2022-08-21T14:11:06;1.90;;;1.42;;
72335;SDS011;62171;48.446;8.834;2022-08-21T14:13:42;3.75;;;1.55;;
72335;SDS011;62171;48.446;8.834;2022-08-21T14:16:12;2.00;;;1.40;;
72335;SDS011;62171;48.446;8.834;2022-08-21T14:21:37;2.20;;;1.20;;
72335;SDS011;62171;48.446;8.834;2022-08-21T14:24:12;3.15;;;1.25;;
72335;SDS011;62171;48.446;8.834;2022-08-21T14:27:07;1.85;;;1.40;;
72335;SDS011;62171;48.446;8.834;2022-08-21T14:29:34;2.97;;;1.50;;
72335;SDS011;62171;48.446;8.834;2022-08-21T14:32:12;2.03;;;1.48;;
72335;SDS011;62171;48.446;8.834;2022-08-21T14:34:40;2.45;;;1.40;;
72335;SDS011;62171;48.446;8.834;2022-08-21T14:37:05;3.05;;;1.40;;
72335;SDS011;62171;48.446;8.834;2022-08-21T14:39:31;2.22;;;1.50;;
72335;SDS011;62171;48.446;8.834;2022-08-21T14:41:57;2.70;;;1.80;;
72335;SDS011;62171;48.446;8.834;2022-08-21T14:44:23;3.20;;;1.73;;
72335;SDS011;62171;48.446;8.834;2022-08-21T14:46:49;2.83;;;1.50;;
72335;SDS011;62171;48.446;8.834;2022-08-21T14:49:14;2.65;;;1.90;;
72335;SDS011;62171;48.446;8.834;2022-08-21T14:51:41;2.97;;;1.33;;
72335;SDS011;62171;48.446;8.834;2022-08-21T14:54:06;2.30;;;1.65;;
72335;SDS011;62171;48.446;8.834;2022-08-21T14:56:32;2.00;;;1.50;;
72335;SDS011;62171;48.446;8.834;2022-08-21T14:59:02;2.95;;;1.50;;
72335;SDS011;62171;48.446;8.834;2022-08-21T15:01:29;2.13;;;1.40;;
72335;SDS011;62171;48.446;8.834;2022-08-21T15:03:58;4.18;;;2.20;;
72335;SDS011;62171;48.446;8.834;2022-08-21T15:06:23;2.90;;;2.05;;
72335;SDS011;62171;48.446;8.834;2022-08-21T15:08:48;2.28;;;1.50;;
72335;SDS011;62171;48.446;8.834;2022-08-21T15:11:16;2.05;;;1.40;;
72335;SDS011;62171;48.446;8.834;2022-08-21T15:16:10;2.88;;;1.45;;
72335;SDS011;62171;48.446;8.834;2022-08-21T15:18:36;2.83;;;1.45;;
72335;SDS011;62171;48.446;8.834;2022-08-21T15:21:01;2.45;;;1.50;;
72335;SDS011;62171;48.446;8.834;2022-08-21T15:23:26;2.83;;;1.70;;
72335;SDS011;62171;48.446;8.834;2022-08-21T15:25:52;3.30;;;1.63;;
72335;SDS011;62171;48.446;8.834;2022-08-21T15:28:20;2.85;;;2.30;;
72335;SDS011;62171;48.446;8.834;2022-08-21T15:30:46;1.77;;;1.50;;
72335;SDS011;62171;48.446;8.834;2022-08-21T15:33:12;2.95;;;1.58;;
72335;SDS011;62171;48.446;8.834;2022-08-21T15:35:37;1.85;;;1.40;;
72335;SDS011;62171;48.446;8.834;2022-08-21T15:38:04;2.03;;;1.42;;
72335;SDS011;62171;48.446;8.834;2022-08-21T15:40:30;1.88;;;1.55;;
72335;SDS011;62171;48.446;8.834;2022-08-21T15:43:04;2.05;;;1.40;;
72335;SDS011;62171;48.446;8.834;2022-08-21T15:45:30;3.95;;;1.52;;
72335;SDS011;62171;48.446;8.834;2022-08-21T15:47:56;2.90;;;1.45;;
72335;SDS011;62171;48.446;8.834;2022-08-21T15:50:21;3.25;;;1.42;;
72335;SDS011;62171;48.446;8.834;2022-08-21T15:52:48;2.63;;;1.50;;
72335;SDS011;62171;48.446;8.834;2022-08-21T15:55:13;4.78;;;1.40;;
72335;SDS011;62171;48.446;8.834;2022-08-21T15:57:43;1.90;;;1.42;;
72335;SDS011;62171;48.446;8.834;2022-08-21T16:00:12;2.05;;;1.40;;
72335;SDS011;62171;48.446;8.834;2022-08-21T16:02:42;2.38;;;1.75;;
72335;SDS011;62171;48.446;8.834;2022-08-21T16:05:09;2.40;;;1.40;;
72335;SDS011;62171;48.446;8.834;2022-08-21T16:07:37;2.10;;;1.35;;
72335;SDS011;62171;48.446;8.834;2022-08-21T16:10:04;4.22;;;1.58;;
72335;SDS011;62171;48.446;8.834;2022-08-21T16:12:31;4.18;;;1.45;;
72335;SDS011;62171;48.446;8.834;2022-08-21T16:14:59;2.67;;;1.60;;
72335;SDS011;62171;48.446;8.834;2022-08-21T16:17:30;2.28;;;1.50;;
72335;SDS011;62171;48.446;8.834;2022-08-21T16:19:58;2.75;;;1.65;;
72335;SDS011;62171;48.446;8.834;2022-08-21T16:22:25;2.60;;;1.50;;
72335;SDS011;62171;48.446;8.834;2022-08-21T16:24:51;2.95;;;1.50;;